Time;durP1;ratioP1;P1;durP2;ratioP2;P2;SDS_P1;SDS_P2;PMS_P1;PMS_P2;Temp;Humidity;BMP_temperature;BMP_pressure;BME280_temperature;BME280_humidity;BME280_pressure;Samples;Min_cycle;Max_cycle;Signal;HPM_P1;HPM_P2
2023/04/03 00:01:08;;;;;;;4.57;2.05;;;8.50;99.90;;;;;;4898807;28;20090;-80
2023/04/03 00:03:36;;;;;;;4.95;2.25;;;8.30;99.90;;;;;;4906926;28;20578;-79
2023/04/03 00:06:06;;;;;;;6.05;2.50;;;8.20;99.90;;;;;;4904914;28;22605;-80
2023/04/03 00:08:33;;;;;;;4.72;2.45;;;8.20;99.90;;;;;;4922747;28;20154;-80
2023/04/03 00:11:01;;;;;;;7.75;3.35;;;8.10;99.90;;;;;;4885384;28;22428;-80
2023/04/03 00:13:29;;;;;;;6.45;2.90;;;8.10;99.90;;;;;;4936358;28;20430;-79
2023/04/03 00:15:57;;;;;;;8.00;3.78;;;8.10;99.90;;;;;;4915079;28;20055;-79
2023/04/03 00:18:24;;;;;;;4.70;1.90;;;8.10;99.90;;;;;;4920251;28;20055;-80
2023/04/03 00:20:51;;;;;;;6.03;2.65;;;8.00;99.90;;;;;;4889126;28;22405;-79
2023/04/03 00:23:18;;;;;;;8.50;2.70;;;8.10;99.90;;;;;;4922429;28;20079;-79
2023/04/03 00:25:46;;;;;;;5.47;2.65;;;8.00;99.90;;;;;;4907177;28;20051;-80
2023/04/03 00:28:13;;;;;;;5.85;2.78;;;8.30;99.90;;;;;;4907099;28;20658;-79
2023/04/03 00:30:40;;;;;;;4.80;1.98;;;8.50;99.90;;;;;;4921774;28;20062;-79
2023/04/03 00:33:11;;;;;;;7.20;2.33;;;8.40;99.90;;;;;;4915416;28;20051;-80
2023/04/03 00:35:39;;;;;;;5.55;2.22;;;8.40;99.90;;;;;;4930754;28;20039;-79
2023/04/03 00:38:06;;;;;;;5.68;2.25;;;8.50;99.90;;;;;;4921992;28;20133;-79
2023/04/03 00:40:41;;;;;;;6.78;2.50;;;8.50;99.90;;;;;;4895148;28;20088;-80
2023/04/03 00:43:21;;;;;;;6.03;2.38;;;8.50;99.90;;;;;;4924273;28;20051;-79
2023/04/03 00:45:52;;;;;;;6.53;2.67;;;8.50;99.90;;;;;;4908346;28;20090;-80
2023/04/03 00:48:32;;;;;;;5.82;2.50;;;8.40;99.90;;;;;;4928401;28;20062;-80
2023/04/03 00:51:01;;;;;;;5.47;2.70;;;8.50;99.90;;;;;;4927147;28;20129;-80
2023/04/03 00:53:37;;;;;;;5.43;2.55;;;8.20;99.90;;;;;;4906134;29;20055;-80
2023/04/03 00:56:08;;;;;;;6.63;3.00;;;8.20;99.90;;;;;;4917004;28;20047;-80
2023/04/03 00:58:59;;;;;;;5.45;2.85;;;8.00;99.90;;;;;;4914568;28;20047;-80
2023/04/03 01:01:29;;;;;;;5.38;2.30;;;8.20;99.90;;;;;;4915264;28;20158;-80
2023/04/03 01:03:58;;;;;;;6.03;2.78;;;8.00;99.90;;;;;;4894661;28;20578;-80
2023/04/03 01:06:31;;;;;;;5.35;2.63;;;8.10;99.90;;;;;;4927320;28;20032;-80
2023/04/03 01:09:04;;;;;;;6.80;2.90;;;8.20;99.90;;;;;;4907289;28;20051;-80
2023/04/03 01:11:32;;;;;;;6.00;2.95;;;8.20;99.90;;;;;;4897094;29;20727;-79
2023/04/03 01:14:01;;;;;;;5.78;2.88;;;8.20;99.90;;;;;;4912899;28;20463;-79
2023/04/03 01:16:31;;;;;;;7.03;3.13;;;7.10;99.90;;;;;;4930385;28;20137;-80
2023/04/03 01:19:01;;;;;;;7.32;3.35;;;7.90;99.90;;;;;;4904784;28;20055;-79
2023/04/03 01:22:12;;;;;;;9.82;3.30;;;7.80;99.90;;;;;;4904509;28;20047;-80
2023/04/03 01:24:41;;;;;;;6.95;3.08;;;7.00;99.90;;;;;;4904687;28;20047;-80
2023/04/03 01:27:11;;;;;;;6.93;3.22;;;7.90;99.90;;;;;;4898417;28;20050;-80
2023/04/03 01:29:41;;;;;;;7.65;3.55;;;7.60;99.90;;;;;;4922722;28;20059;-79
2023/04/03 01:32:09;;;;;;;7.47;3.65;;;8.50;99.90;;;;;;4918626;28;20062;-80
2023/04/03 01:34:37;;;;;;;7.68;3.28;;;7.80;99.90;;;;;;4927587;28;20051;-80
2023/04/03 01:37:05;;;;;;;7.57;3.30;;;7.90;99.90;;;;;;4924269;28;20277;-80
2023/04/03 01:39:32;;;;;;;8.32;3.55;;;7.20;99.90;;;;;;4895743;28;20463;-80
2023/04/03 01:42:00;;;;;;;5.38;2.90;;;6.80;99.90;;;;;;4897138;29;20081;-80
2023/04/03 01:44:34;;;;;;;10.30;4.20;;;7.80;99.90;;;;;;4907598;28;20109;-79
2023/04/03 01:47:02;;;;;;;8.13;3.78;;;7.70;99.90;;;;;;4914235;28;20055;-80
2023/04/03 01:49:30;;;;;;;7.50;3.70;;;7.60;99.90;;;;;;4907415;28;20043;-80
2023/04/03 01:51:57;;;;;;;8.00;3.47;;;6.50;99.90;;;;;;4928970;28;20146;-80
2023/04/03 01:54:25;;;;;;;8.15;4.00;;;7.70;99.90;;;;;;4900515;29;20055;-80
2023/04/03 01:56:53;;;;;;;8.05;3.70;;;7.40;99.90;;;;;;4917939;28;20557;-80
2023/04/03 01:59:24;;;;;;;7.40;3.13;;;7.50;99.90;;;;;;4923390;28;20199;-80
2023/04/03 02:01:52;;;;;;;5.10;2.63;;;7.40;99.90;;;;;;4899755;29;20055;-80
2023/04/03 02:04:19;;;;;;;5.65;2.85;;;7.30;99.90;;;;;;4954768;28;20061;-80
2023/04/03 02:06:47;;;;;;;8.88;3.60;;;7.30;99.90;;;;;;4931369;28;20051;-80
2023/04/03 02:09:21;;;;;;;8.30;3.90;;;7.20;99.90;;;;;;4936055;28;20071;-80
2023/04/03 02:11:49;;;;;;;9.35;4.18;;;7.30;99.40;;;;;;4919731;28;20146;-80
2023/04/03 02:14:23;;;;;;;6.13;2.65;;;7.30;99.70;;;;;;4940780;28;20074;-80
2023/04/03 02:16:50;;;;;;;6.40;3.55;;;7.50;99.90;;;;;;4918868;28;20055;-80
2023/04/03 02:19:18;;;;;;;6.65;3.03;;;7.40;98.60;;;;;;4925816;28;20062;-80
2023/04/03 02:21:46;;;;;;;6.97;3.03;;;6.30;99.20;;;;;;4903590;28;20063;-80
2023/04/03 02:24:14;;;;;;;6.60;3.30;;;7.30;98.90;;;;;;4921426;28;20130;-80
2023/04/03 02:26:47;;;;;;;6.88;3.17;;;8.20;99.90;;;;;;4931964;28;20146;-80
2023/04/03 02:29:15;;;;;;;6.68;2.90;;;7.30;99.50;;;;;;4908028;28;20055;-80
2023/04/03 02:31:42;;;;;;;5.82;2.55;;;7.30;99.20;;;;;;4926661;28;20057;-80
2023/04/03 02:34:10;;;;;;;8.05;2.80;;;7.10;98.40;;;;;;4901702;29;22320;-80
2023/04/03 02:36:38;;;;;;;5.68;2.08;;;6.70;98.00;;;;;;4939407;28;20138;-80
2023/04/03 02:39:08;;;;;;;6.55;2.63;;;7.20;97.80;;;;;;4949555;28;20051;-81
2023/04/03 02:41:36;;;;;;;4.47;2.30;;;7.10;97.30;;;;;;4911913;28;20051;-80
2023/04/03 02:44:10;;;;;;;5.15;2.60;;;7.20;97.10;;;;;;4924516;28;20293;-80
2023/04/03 02:46:37;;;;;;;4.60;2.47;;;7.10;97.20;;;;;;4909745;28;22592;-80
2023/04/03 02:49:05;;;;;;;5.28;2.45;;;7.10;96.60;;;;;;4946280;28;20046;-80
2023/04/03 02:51:33;;;;;;;4.15;1.75;;;7.30;97.50;;;;;;4924643;28;20048;-80
2023/04/03 02:54:01;;;;;;;4.90;2.30;;;7.20;97.50;;;;;;4900736;28;20055;-80
2023/04/03 02:56:31;;;;;;;6.47;3.35;;;7.20;97.20;;;;;;4923207;28;20055;-79
2023/04/03 02:58:59;;;;;;;9.60;3.42;;;7.10;97.00;;;;;;4894723;29;20055;-80
2023/04/03 03:01:31;;;;;;;8.13;3.15;;;7.20;97.00;;;;;;4933832;28;20051;-80
2023/04/03 03:04:00;;;;;;;12.70;4.45;;;7.30;97.20;;;;;;4923928;28;20047;-80
2023/04/03 03:06:27;;;;;;;10.45;4.68;;;7.30;96.50;;;;;;4914930;28;20054;-80
2023/04/03 03:08:55;;;;;;;9.85;4.30;;;7.30;96.60;;;;;;4941076;28;20157;-80
2023/04/03 03:11:22;;;;;;;9.52;3.42;;;7.20;96.50;;;;;;4934747;28;20090;-80
2023/04/03 03:13:49;;;;;;;6.72;2.83;;;7.10;96.00;;;;;;4927757;28;20162;-80
2023/04/03 03:16:16;;;;;;;5.65;2.40;;;7.10;96.40;;;;;;4916684;28;20046;-80
2023/04/03 03:18:44;;;;;;;4.75;2.03;;;6.60;95.60;;;;;;4924443;28;20074;-80
2023/04/03 03:21:11;;;;;;;5.43;1.90;;;7.10;95.20;;;;;;4918555;28;20227;-79
2023/04/03 03:23:39;;;;;;;3.33;1.77;;;6.40;94.40;;;;;;4937956;28;20145;-81
2023/04/03 03:26:09;;;;;;;3.50;1.80;;;6.40;94.20;;;;;;4924393;28;20059;-80
2023/04/03 03:28:38;;;;;;;3.30;1.70;;;6.90;94.00;;;;;;4924356;28;20142;-80
2023/04/03 03:31:06;;;;;;;4.63;1.95;;;6.80;93.50;;;;;;4943347;28;20059;-80
2023/04/03 03:33:35;;;;;;;4.15;1.90;;;6.80;93.70;;;;;;4927649;28;20054;-80
2023/04/03 03:36:03;;;;;;;4.80;2.22;;;6.80;93.50;;;;;;4923380;28;20051;-79
2023/04/03 03:38:30;;;;;;;4.78;2.20;;;6.80;93.30;;;;;;4933678;28;20526;-79
2023/04/03 03:41:00;;;;;;;4.35;2.00;;;6.80;93.10;;;;;;4938470;28;20125;-81
2023/04/03 03:43:30;;;;;;;4.53;1.90;;;6.80;92.90;;;;;;4921696;28;20631;-80
2023/04/03 03:45:57;;;;;;;4.18;1.55;;;6.80;93.10;;;;;;4913649;28;20085;-79
2023/04/03 03:48:26;;;;;;;4.75;2.47;;;6.70;92.50;;;;;;4921276;28;20877;-80
2023/04/03 03:50:53;;;;;;;5.38;2.03;;;5.90;92.00;;;;;;4954573;28;22824;-80
2023/04/03 03:53:24;;;;;;;4.30;2.13;;;6.70;92.70;;;;;;4934015;28;20051;-80
2023/04/03 03:55:55;;;;;;;4.22;1.77;;;6.70;92.70;;;;;;4921166;28;20051;-80
2023/04/03 03:58:28;;;;;;;6.07;1.92;;;6.60;92.70;;;;;;4941419;28;20137;-79
2023/04/03 04:01:02;;;;;;;4.63;2.22;;;6.70;93.00;;;;;;4931098;28;20055;-80
2023/04/03 04:03:30;;;;;;;5.53;2.20;;;6.70;92.70;;;;;;4937947;28;20055;-80
2023/04/03 04:06:01;;;;;;;3.00;1.45;;;6.50;92.30;;;;;;4924114;28;20082;-80
2023/04/03 04:08:29;;;;;;;5.15;2.25;;;6.50;92.40;;;;;;4911784;28;20933;-80
2023/04/03 04:10:56;;;;;;;3.92;1.85;;;6.50;92.40;;;;;;4918414;28;20067;-79
2023/04/03 04:13:24;;;;;;;4.53;2.08;;;6.50;92.10;;;;;;4930028;28;20473;-78
2023/04/03 04:15:51;;;;;;;4.72;2.05;;;6.50;92.30;;;;;;4913846;28;20205;-79
2023/04/03 04:18:21;;;;;;;6.95;3.08;;;6.50;92.50;;;;;;4947657;28;20503;-80
2023/04/03 04:20:49;;;;;;;5.68;2.00;;;6.40;92.70;;;;;;4936651;28;20738;-79
2023/04/03 04:23:18;;;;;;;5.47;2.45;;;6.30;92.50;;;;;;4912747;28;20055;-80
2023/04/03 04:25:48;;;;;;;4.55;2.10;;;7.00;92.80;;;;;;4945118;28;20059;-80
2023/04/03 04:28:17;;;;;;;4.30;2.22;;;7.80;93.40;;;;;;4917803;28;20050;-78
2023/04/03 04:30:46;;;;;;;5.82;2.70;;;6.20;92.90;;;;;;4919147;28;20513;-80
2023/04/03 04:33:16;;;;;;;6.13;2.45;;;6.30;93.00;;;;;;4921753;28;20195;-79
2023/04/03 04:35:46;;;;;;;4.40;2.30;;;6.30;93.40;;;;;;4939387;28;20059;-80
2023/04/03 04:38:16;;;;;;;5.53;2.60;;;5.80;93.00;;;;;;4937526;28;20086;-78
2023/04/03 04:40:43;;;;;;;4.43;2.10;;;6.10;93.00;;;;;;4931057;28;20085;-80
2023/04/03 04:43:14;;;;;;;4.95;2.17;;;6.10;93.10;;;;;;4939035;28;20738;-80
2023/04/03 04:45:43;;;;;;;5.10;2.33;;;6.10;93.20;;;;;;4902407;28;20059;-80
2023/04/03 04:48:12;;;;;;;5.88;2.60;;;6.40;93.30;;;;;;4902471;28;20209;-80
2023/04/03 04:50:40;;;;;;;7.00;3.00;;;5.10;92.70;;;;;;4919052;28;20054;-80
2023/04/03 04:53:08;;;;;;;6.45;2.75;;;6.00;93.10;;;;;;4934474;28;20396;-78
2023/04/03 04:55:35;;;;;;;5.70;2.45;;;6.10;93.20;;;;;;4915837;28;20047;-79
2023/04/03 04:58:05;;;;;;;5.50;2.22;;;6.10;93.10;;;;;;4920220;28;20181;-79
2023/04/03 05:00:33;;;;;;;4.32;2.40;;;6.00;92.90;;;;;;4906627;28;20047;-80
2023/04/03 05:03:01;;;;;;;6.03;2.20;;;6.00;92.80;;;;;;4924894;28;20057;-80
2023/04/03 05:05:29;;;;;;;4.40;2.42;;;5.90;93.10;;;;;;4916623;28;20066;-80
2023/04/03 05:07:57;;;;;;;6.47;3.28;;;6.40;92.80;;;;;;4901239;28;22472;-79
2023/04/03 05:10:25;;;;;;;6.57;2.70;;;6.10;92.80;;;;;;4910633;28;20086;-80
2023/04/03 05:12:53;;;;;;;5.35;2.40;;;5.90;92.80;;;;;;4918113;28;20043;-79
2023/04/03 05:15:21;;;;;;;4.05;2.08;;;6.00;92.80;;;;;;4904994;28;20050;-79
2023/04/03 05:17:49;;;;;;;4.82;2.10;;;6.60;93.00;;;;;;4916570;28;20751;-80
2023/04/03 05:20:17;;;;;;;7.13;3.53;;;6.20;92.70;;;;;;4897557;29;20223;-79
2023/04/03 05:22:46;;;;;;;5.00;1.90;;;6.10;92.90;;;;;;4918191;28;22346;-80
2023/04/03 05:25:16;;;;;;;5.70;2.15;;;6.00;92.70;;;;;;4920950;28;20122;-80
2023/04/03 05:27:47;;;;;;;5.30;2.22;;;6.10;93.10;;;;;;4939535;28;20411;-80
2023/04/03 05:30:14;;;;;;;7.07;2.17;;;6.00;92.90;;;;;;4897897;29;20506;-80
2023/04/03 05:32:42;;;;;;;4.65;2.38;;;6.10;92.80;;;;;;4920222;29;20122;-80
2023/04/03 05:35:18;;;;;;;5.38;2.20;;;6.20;92.80;;;;;;4965434;28;20043;-80
2023/04/03 05:37:49;;;;;;;5.15;2.50;;;6.30;92.80;;;;;;4930931;28;20055;-80
2023/04/03 05:40:18;;;;;;;5.50;2.33;;;6.60;92.10;;;;;;4938460;28;20051;-80
2023/04/03 05:42:49;;;;;;;4.38;2.22;;;6.50;92.50;;;;;;4936652;28;20102;-80
2023/04/03 05:45:18;;;;;;;6.35;2.47;;;6.30;92.20;;;;;;4943821;29;20062;-80
2023/04/03 05:47:47;;;;;;;7.10;3.08;;;6.60;92.50;;;;;;4940738;29;20072;-80
2023/04/03 05:50:15;;;;;;;5.57;1.80;;;5.90;91.70;;;;;;4917389;28;20055;-79
2023/04/03 05:52:46;;;;;;;4.60;2.20;;;6.70;91.30;;;;;;4905431;28;22139;-80
2023/04/03 05:55:15;;;;;;;5.25;2.58;;;6.40;91.20;;;;;;4922182;28;20074;-80
2023/04/03 05:57:45;;;;;;;5.55;2.45;;;6.30;91.20;;;;;;4918677;28;20046;-80
2023/04/03 06:00:15;;;;;;;4.20;2.25;;;6.40;91.60;;;;;;4889312;28;20217;-79
2023/04/03 06:02:49;;;;;;;5.53;2.72;;;6.40;91.70;;;;;;4943711;28;20052;-79
2023/04/03 06:05:22;;;;;;;5.38;1.88;;;6.50;92.10;;;;;;4899255;28;24020;-80
2023/04/03 06:07:50;;;;;;;5.15;2.45;;;6.50;91.60;;;;;;4931861;28;20075;-80
2023/04/03 06:10:18;;;;;;;4.60;2.00;;;6.50;91.40;;;;;;4935449;28;20462;-80
2023/04/03 06:12:45;;;;;;;4.47;2.10;;;6.50;91.70;;;;;;4893986;28;20056;-80
2023/04/03 06:15:13;;;;;;;5.50;2.47;;;6.60;91.40;;;;;;4913835;28;20146;-79
2023/04/03 06:17:40;;;;;;;5.50;2.17;;;6.50;91.20;;;;;;4896086;28;20066;-79
2023/04/03 06:20:09;;;;;;;3.97;1.83;;;6.50;91.10;;;;;;4919907;28;20090;-80
2023/04/03 06:22:39;;;;;;;5.68;1.90;;;6.50;91.10;;;;;;4919686;28;20145;-80
2023/04/03 06:25:07;;;;;;;5.13;2.42;;;6.60;91.10;;;;;;4911209;28;20429;-80
2023/04/03 06:27:34;;;;;;;4.88;2.28;;;6.30;91.00;;;;;;4913776;28;20057;-80
2023/04/03 06:30:02;;;;;;;5.72;2.50;;;7.00;90.70;;;;;;4894365;28;20043;-80
2023/04/03 06:32:29;;;;;;;6.05;2.13;;;7.00;90.50;;;;;;4925329;28;20057;-80
2023/04/03 06:34:58;;;;;;;7.82;2.70;;;7.10;90.90;;;;;;4908570;28;22448;-79
2023/04/03 06:37:29;;;;;;;6.72;2.03;;;7.10;90.30;;;;;;4900807;28;20473;-80
2023/04/03 06:39:57;;;;;;;6.07;2.50;;;7.10;90.50;;;;;;4919491;28;20386;-79
2023/04/03 06:42:24;;;;;;;4.05;1.90;;;7.00;89.40;;;;;;4934332;28;20050;-80
2023/04/03 06:45:01;;;;;;;6.07;2.80;;;6.90;88.50;;;;;;4919380;28;20071;-80
2023/04/03 06:47:31;;;;;;;4.80;2.30;;;6.90;89.50;;;;;;4914455;28;22334;-78
2023/04/03 06:50:02;;;;;;;5.22;2.65;;;7.10;89.50;;;;;;4930426;28;20070;-79
2023/04/03 06:52:30;;;;;;;6.68;2.92;;;7.00;89.30;;;;;;4897919;28;20051;-80
2023/04/03 06:55:00;;;;;;;4.13;1.80;;;7.20;88.60;;;;;;4923089;28;20035;-80
2023/04/03 06:57:28;;;;;;;4.50;2.22;;;8.50;89.10;;;;;;4896987;28;20055;-79
2023/04/03 06:59:55;;;;;;;4.13;1.58;;;7.30;88.50;;;;;;4927852;28;21956;-80
2023/04/03 07:02:23;;;;;;;5.53;3.00;;;7.70;88.90;;;;;;4902812;28;20055;-80
2023/04/03 07:04:50;;;;;;;6.40;2.53;;;7.70;88.20;;;;;;4898504;28;20194;-80
2023/04/03 07:07:18;;;;;;;5.57;2.63;;;8.40;89.30;;;;;;4905083;28;22719;-79
2023/04/03 07:09:47;;;;;;;5.18;2.65;;;8.60;83.60;;;;;;4914507;28;20171;-80
2023/04/03 07:12:15;;;;;;;3.80;2.28;;;8.30;84.80;;;;;;4901132;28;20111;-79
2023/04/03 07:14:43;;;;;;;5.43;2.05;;;8.10;85.00;;;;;;4897266;28;20426;-80
2023/04/03 07:17:11;;;;;;;4.60;1.67;;;8.30;84.80;;;;;;4910686;28;20234;-79
2023/04/03 07:19:38;;;;;;;4.70;1.85;;;7.90;85.00;;;;;;4921578;28;20525;-79
2023/04/03 07:22:06;;;;;;;3.53;2.00;;;8.00;85.80;;;;;;4919775;28;20054;-78
2023/04/03 07:24:34;;;;;;;2.67;1.65;;;8.10;85.10;;;;;;4911068;28;20055;-80
2023/04/03 07:27:05;;;;;;;3.80;1.15;;;8.10;84.40;;;;;;4921096;28;20101;-79
2023/04/03 07:29:32;;;;;;;3.40;1.50;;;8.30;84.40;;;;;;4918845;28;20059;-79
2023/04/03 07:32:00;;;;;;;3.08;1.10;;;7.30;83.50;;;;;;4924299;28;20039;-80
2023/04/03 07:34:28;;;;;;;2.78;1.08;;;8.10;83.50;;;;;;4909026;28;20142;-80
2023/04/03 07:36:56;;;;;;;3.25;1.30;;;8.30;84.70;;;;;;4908921;28;20158;-79
2023/04/03 07:39:27;;;;;;;2.05;0.98;;;8.50;83.10;;;;;;4917154;28;20959;-80
2023/04/03 07:41:56;;;;;;;3.30;1.48;;;8.50;82.00;;;;;;4899008;28;20468;-80
2023/04/03 07:44:23;;;;;;;4.50;0.90;;;8.50;82.00;;;;;;4916067;28;20697;-80
2023/04/03 07:46:51;;;;;;;2.45;1.27;;;9.30;82.50;;;;;;4931337;28;20165;-80
2023/04/03 07:49:19;;;;;;;3.38;1.30;;;8.50;81.90;;;;;;4914601;28;20054;-79
2023/04/03 07:51:46;;;;;;;2.67;1.00;;;9.00;81.30;;;;;;4906444;28;20050;-77
2023/04/03 07:54:14;;;;;;;3.20;1.17;;;9.40;80.70;;;;;;4907918;28;20051;-80
2023/04/03 07:56:42;;;;;;;2.63;1.10;;;9.20;80.10;;;;;;4917727;28;21188;-79
2023/04/03 07:59:13;;;;;;;1.83;0.63;;;9.10;79.70;;;;;;4893705;28;20047;-80
2023/04/03 08:01:40;;;;;;;1.30;0.70;;;9.10;79.50;;;;;;4895120;28;20186;-79
2023/04/03 08:04:08;;;;;;;2.72;1.02;;;9.10;81.60;;;;;;4911528;28;20051;-81
2023/04/03 08:06:36;;;;;;;2.38;0.98;;;9.00;80.10;;;;;;4914199;28;20055;-79
2023/04/03 08:09:15;;;;;;;3.17;0.70;;;8.80;79.90;;;;;;4927650;28;20058;-80
2023/04/03 08:11:43;;;;;;;2.72;0.82;;;8.70;80.70;;;;;;4926755;28;20514;-79
2023/04/03 08:14:16;;;;;;;2.38;0.80;;;8.90;81.80;;;;;;4899342;29;20062;-80
2023/04/03 08:16:46;;;;;;;2.22;0.88;;;9.00;81.40;;;;;;4914901;28;20047;-79
2023/04/03 08:19:16;;;;;;;2.65;0.70;;;8.70;79.80;;;;;;4941907;28;20728;-76
2023/04/03 08:21:54;;;;;;;3.70;1.17;;;8.80;80.60;;;;;;4922101;28;20062;-79
2023/04/03 08:24:22;;;;;;;2.20;1.05;;;8.80;81.00;;;;;;4916568;28;20134;-79
2023/04/03 08:26:52;;;;;;;2.92;0.95;;;9.00;80.80;;;;;;4903705;28;20062;-80
2023/04/03 08:29:21;;;;;;;3.45;0.82;;;9.00;81.40;;;;;;4904483;28;20055;-80
2023/04/03 08:31:50;;;;;;;1.83;0.80;;;9.00;80.80;;;;;;4899792;28;20067;-79
2023/04/03 08:34:18;;;;;;;2.20;0.73;;;9.10;80.30;;;;;;4929235;28;20454;-79
2023/04/03 08:36:46;;;;;;;2.70;1.02;;;8.90;81.30;;;;;;4902477;28;20099;-81
2023/04/03 08:39:16;;;;;;;1.77;0.80;;;9.00;80.40;;;;;;4910810;28;20147;-80
2023/04/03 08:41:47;;;;;;;3.05;1.00;;;9.50;81.10;;;;;;4901296;29;20668;-81
2023/04/03 08:44:25;;;;;;;2.05;1.10;;;9.30;80.70;;;;;;4910463;28;20055;-81
2023/04/03 08:46:58;;;;;;;2.05;0.70;;;9.40;80.30;;;;;;4913894;28;20064;-81
2023/04/03 08:49:51;;;;;;;1.42;0.57;;;9.30;79.30;;;;;;4909763;28;20098;-81
2023/04/03 08:52:40;;;;;;;2.60;0.70;;;9.30;78.90;;;;;;4929452;28;20054;-80
2023/04/03 08:55:21;;;;;;;2.13;0.80;;;9.20;78.10;;;;;;4912076;28;20170;-79
2023/04/03 08:57:53;;;;;;;2.75;0.70;;;9.50;78.60;;;;;;4897562;28;20058;-79
2023/04/03 09:00:24;;;;;;;1.80;0.50;;;9.50;78.80;;;;;;4913394;28;20063;-81
2023/04/03 09:03:00;;;;;;;2.20;0.60;;;9.70;80.20;;;;;;4928459;28;20288;-79
2023/04/03 09:05:48;;;;;;;2.35;0.80;;;9.60;77.80;;;;;;4890321;28;20144;-80
2023/04/03 09:08:22;;;;;;;2.88;0.70;;;9.60;77.50;;;;;;4915574;28;20873;-79
2023/04/03 09:11:00;;;;;;;1.98;0.57;;;9.60;78.30;;;;;;4905323;28;21424;-80
2023/04/03 09:13:43;;;;;;;1.10;0.35;;;9.50;77.20;;;;;;4897721;28;20078;-80
2023/04/03 09:16:30;;;;;;;1.67;0.57;;;9.80;76.10;;;;;;4928006;28;20055;-80
2023/04/03 09:19:23;;;;;;;1.95;0.73;;;9.80;76.60;;;;;;4893477;28;20097;-80
2023/04/03 09:21:52;;;;;;;2.40;1.08;;;9.90;75.80;;;;;;4923280;28;20083;-80
2023/04/03 09:24:23;;;;;;;1.50;0.45;;;9.80;74.60;;;;;;4905056;28;20055;-80
2023/04/03 09:27:06;;;;;;;1.88;0.70;;;9.90;75.20;;;;;;4926140;28;20065;-79
2023/04/03 09:29:43;;;;;;;2.25;0.90;;;10.10;74.30;;;;;;4914559;28;20543;-79
2023/04/03 09:32:36;;;;;;;2.40;0.88;;;10.20;74.00;;;;;;4920633;28;20058;-80
2023/04/03 09:35:23;;;;;;;1.85;0.60;;;10.40;75.40;;;;;;4903898;28;20177;-81
2023/04/03 09:38:12;;;;;;;1.80;0.60;;;10.40;74.90;;;;;;4936050;28;20063;-81
2023/04/03 09:41:02;;;;;;;1.85;0.85;;;10.60;75.40;;;;;;4894238;28;20078;-79
2023/04/03 09:43:35;;;;;;;3.25;1.13;;;10.70;75.20;;;;;;4919445;28;20047;-79
2023/04/03 09:46:31;;;;;;;4.65;2.72;;;11.30;74.30;;;;;;4899282;28;20047;-79
2023/04/03 09:49:05;;;;;;;2.58;1.00;;;11.10;73.80;;;;;;4910621;28;20062;-78
2023/04/03 09:51:36;;;;;;;2.38;1.05;;;11.30;72.70;;;;;;4910241;28;20411;-79
2023/04/03 09:54:32;;;;;;;2.58;1.20;;;11.70;74.40;;;;;;4905943;28;20087;-79
2023/04/03 09:57:08;;;;;;;3.03;1.27;;;11.90;73.50;;;;;;4895947;28;22279;-79
2023/04/03 09:59:39;;;;;;;3.08;1.02;;;11.00;72.30;;;;;;4921321;28;20051;-77
2023/04/03 10:02:36;;;;;;;2.65;1.25;;;12.10;73.40;;;;;;4901201;28;20058;-79
2023/04/03 10:05:25;;;;;;;3.00;0.90;;;12.00;73.30;;;;;;4887330;29;20063;-79
2023/04/03 10:08:06;;;;;;;4.10;1.30;;;11.40;71.90;;;;;;4910778;28;20055;-80
2023/04/03 10:10:35;;;;;;;2.05;0.90;;;10.90;71.10;;;;;;4911224;28;20541;-79
2023/04/03 10:13:12;;;;;;;1.85;0.80;;;11.70;70.20;;;;;;4905038;28;20074;-79
2023/04/03 10:16:02;;;;;;;3.13;1.02;;;11.80;71.00;;;;;;4897228;28;20131;-80
2023/04/03 10:19:06;;;;;;;2.05;1.02;;;11.80;70.30;;;;;;4919654;28;20047;-79
2023/04/03 10:21:56;;;;;;;1.38;0.85;;;11.80;69.70;;;;;;4903360;28;20051;-80
2023/04/03 10:24:41;;;;;;;3.40;1.15;;;11.50;69.50;;;;;;4908878;28;20142;-79
2023/04/03 10:27:18;;;;;;;1.63;0.70;;;10.90;68.90;;;;;;4932197;28;20051;-80
2023/04/03 10:30:01;;;;;;;2.55;0.90;;;10.60;68.20;;;;;;4894669;28;20185;-79
2023/04/03 10:32:41;;;;;;;2.97;1.35;;;10.70;70.80;;;;;;4895629;28;20061;-79
2023/04/03 10:35:54;;;;;;;5.28;1.83;;;10.80;71.00;;;;;;4934164;28;20102;-79
2023/04/03 10:38:31;;;;;;;7.35;3.70;;;10.60;71.20;;;;;;4900712;28;20051;-78
2023/04/03 10:41:12;;;;;;;2.20;0.82;;;10.70;71.80;;;;;;4918754;29;20047;-78
2023/04/03 10:43:55;;;;;;;3.40;0.60;;;11.00;71.80;;;;;;4892132;28;23605;-78
2023/04/03 10:46:46;;;;;;;3.70;0.70;;;11.00;72.80;;;;;;4902149;28;20582;-79
2023/04/03 10:49:46;;;;;;;3.03;0.95;;;10.10;71.60;;;;;;4912833;28;20047;-79
2023/04/03 10:52:40;;;;;;;1.23;0.60;;;11.00;71.30;;;;;;4856218;28;20075;-81
2023/04/03 10:55:20;;;;;;;3.00;1.02;;;11.10;71.30;;;;;;4915454;28;20043;-80
2023/04/03 10:57:49;;;;;;;1.67;0.65;;;11.10;70.50;;;;;;4911729;28;20043;-80
2023/04/03 11:00:20;;;;;;;2.17;0.80;;;11.10;71.30;;;;;;4905058;28;20140;-79
2023/04/03 11:02:53;;;;;;;1.85;0.60;;;11.00;69.10;;;;;;4926824;28;20047;-81
2023/04/03 11:05:42;;;;;;;1.35;0.60;;;11.00;69.30;;;;;;4888456;28;20051;-80
2023/04/03 11:08:15;;;;;;;7.70;4.50;;;11.20;71.40;;;;;;4900835;28;20070;-80
2023/04/03 11:10:48;;;;;;;3.15;1.13;;;11.40;69.70;;;;;;4905123;28;20074;-80
2023/04/03 11:13:33;;;;;;;0.88;0.50;;;11.00;70.40;;;;;;4932210;28;20066;-80
2023/04/03 11:16:01;;;;;;;1.65;0.50;;;10.90;68.90;;;;;;4924200;28;20055;-80
2023/04/03 11:18:40;;;;;;;1.60;0.57;;;10.80;69.30;;;;;;4893549;28;20047;-81
2023/04/03 11:21:19;;;;;;;2.90;1.42;;;10.90;70.40;;;;;;4922210;28;20439;-80
2023/04/03 11:23:47;;;;;;;2.42;1.27;;;10.90;69.10;;;;;;4920829;28;20043;-80
2023/04/03 11:26:28;;;;;;;2.13;0.75;;;11.10;70.00;;;;;;4893839;28;20668;-80
2023/04/03 11:29:12;;;;;;;1.33;0.60;;;11.20;69.80;;;;;;4911600;28;20904;-81
2023/04/03 11:32:05;;;;;;;1.15;0.35;;;11.00;68.40;;;;;;4929371;28;20781;-81
2023/04/03 11:34:53;;;;;;;0.90;0.40;;;11.40;68.50;;;;;;4897096;28;20533;-81
2023/04/03 11:37:38;;;;;;;1.75;0.20;;;11.40;67.20;;;;;;4911906;28;20138;-80
2023/04/03 11:40:26;;;;;;;0.75;0.30;;;11.40;66.10;;;;;;4906310;28;20058;-80
2023/04/03 11:42:59;;;;;;;1.23;0.30;;;11.60;66.30;;;;;;4941641;28;20073;-80
2023/04/03 11:45:35;;;;;;;1.77;0.57;;;11.30;64.10;;;;;;4931639;28;20055;-80
2023/04/03 11:48:32;;;;;;;1.27;0.50;;;10.80;64.80;;;;;;4911328;28;20059;-80
2023/04/03 11:51:29;;;;;;;1.50;0.50;;;11.40;64.50;;;;;;4881274;28;20059;-80
2023/04/03 11:54:36;;;;;;;0.90;0.40;;;11.40;64.50;;;;;;4897051;28;20581;-81
2023/04/03 11:58:01;;;;;;;0.55;0.20;;;11.60;65.70;;;;;;4907253;28;20055;-80
2023/04/03 12:00:47;;;;;;;0.63;0.20;;;11.70;64.40;;;;;;4897023;28;20055;-80
2023/04/03 12:03:40;;;;;;;0.90;0.47;;;11.90;64.10;;;;;;4898606;28;20193;-81
2023/04/03 12:06:09;;;;;;;;;;;12.00;63.90;;;;;;4899523;28;20075;-80
2023/04/03 12:08:40;;;;;;;1.23;0.55;;;11.80;64.30;;;;;;4877060;28;19926;-80
2023/04/03 12:11:13;;;;;;;0.93;0.35;;;11.80;64.20;;;;;;4909438;28;20557;-80
2023/04/03 12:13:42;;;;;;;1.80;0.40;;;11.70;62.90;;;;;;4925103;28;20058;-80
2023/04/03 12:16:38;;;;;;;4.10;0.90;;;11.50;62.90;;;;;;4895558;28;22748;-80
2023/04/03 12:19:44;;;;;;;2.47;1.15;;;11.30;64.20;;;;;;4936359;28;20055;-80
2023/04/03 12:22:21;;;;;;;0.95;0.32;;;11.60;65.30;;;;;;4909851;28;20059;-80
2023/04/03 12:24:51;;;;;;;1.13;0.32;;;11.60;64.80;;;;;;4911448;28;20047;-80
2023/04/03 12:27:43;;;;;;;1.80;0.40;;;11.50;66.20;;;;;;4895402;28;20055;-80
2023/04/03 12:30:21;;;;;;;2.13;0.40;;;11.60;65.30;;;;;;4925259;28;20413;-81
2023/04/03 12:33:17;;;;;;;1.45;0.60;;;11.00;64.70;;;;;;4895383;28;20252;-80
2023/04/03 12:35:54;;;;;;;2.20;0.52;;;11.70;64.80;;;;;;4905965;28;20042;-80
2023/04/03 12:38:45;;;;;;;1.05;0.40;;;11.70;64.40;;;;;;4916648;28;20190;-80
2023/04/03 12:41:43;;;;;;;4.25;1.77;;;11.70;65.20;;;;;;4901532;28;20129;-80
2023/04/03 12:44:17;;;;;;;2.28;0.70;;;11.80;65.20;;;;;;4892275;28;20047;-80
2023/04/03 12:46:48;;;;;;;1.20;0.50;;;11.70;66.70;;;;;;4927391;28;20038;-81
2023/04/03 12:49:38;;;;;;;1.58;0.50;;;10.50;64.60;;;;;;4898269;28;20047;-80
2023/04/03 12:52:32;;;;;;;1.55;0.40;;;11.90;66.30;;;;;;4906371;28;20129;-80
2023/04/03 12:55:03;;;;;;;6.30;2.70;;;11.40;64.50;;;;;;4937232;28;22428;-80
2023/04/03 12:57:32;;;;;;;4.78;1.60;;;11.60;65.10;;;;;;4907897;28;20197;-80
2023/04/03 13:00:00;;;;;;;4.70;1.75;;;11.20;65.60;;;;;;4917852;28;20058;-80
2023/04/03 13:02:30;;;;;;;3.60;1.15;;;11.80;64.70;;;;;;4909184;28;20065;-79
2023/04/03 13:05:04;;;;;;;1.60;0.60;;;11.80;65.10;;;;;;4906928;28;20166;-80
2023/04/03 13:07:37;;;;;;;3.10;0.70;;;11.60;64.70;;;;;;4909487;28;20058;-80
2023/04/03 13:10:05;;;;;;;4.15;1.00;;;11.50;65.20;;;;;;4898580;28;20091;-80
2023/04/03 13:12:33;;;;;;;1.85;0.57;;;11.70;65.80;;;;;;4909230;28;20051;-80
2023/04/03 13:15:11;;;;;;;1.05;0.40;;;11.60;64.70;;;;;;4905244;28;20641;-79
2023/04/03 13:17:42;;;;;;;1.83;0.50;;;11.60;64.80;;;;;;4904959;28;20050;-79
2023/04/03 13:20:28;;;;;;;2.38;1.02;;;11.50;65.10;;;;;;4899254;28;20097;-80
2023/04/03 13:23:08;;;;;;;1.38;0.50;;;12.70;66.30;;;;;;4913584;28;20058;-80
2023/04/03 13:25:40;;;;;;;2.47;0.60;;;12.10;64.50;;;;;;4943237;28;20062;-80
2023/04/03 13:28:11;;;;;;;1.35;0.50;;;11.80;64.00;;;;;;4910403;28;20058;-79